Airfield :
LOGIN :

Register | Disclaimer

   EN    FR    IT 

 










Legend :    VFR   Marginal VFR   IFR   Intensive IFR   Very Intensive IFR
Visi :
Ceiling :
>= 8 km
>= 3000ft
5 to 8 km
1000 to 3000 ft
1500m to 5 km
500 to 1000 ft
800 to 1500m
200 to 500 ft
< 800m
< 200 ft
Symbols :   Thunderstorms  Fog  Heavy snow  Heavy precipitations  Wind > 20 kt
SIGMETs :     Misc.  Thunderstorms  Icing  Turbulence  Mountain Waves  Volcanic Ashes






- Airport Elevation : 68 ft


ESCM - Uppsala

CURRENT METAR :
  • 251250Z 10014KT 9999 SCT028 03/M03 Q0993

EXPIRED METARs :
  • 251220Z 10012KT CAVOK 04/M03 Q0994
  • 251150Z 11013KT 9999 SCT032 04/M03 Q0994
  • 251120Z 09012KT 9999 SCT025 04/M01 Q0994
  • 251050Z 09014KT 9999 SCT023 03/M02 Q0995
  • 251020Z 10012KT 9999 SCT019 03/M00 Q0995

TAF TAF ESCM
Valid from the 25 at 12:00 until the 25 at 15:00 UTC


251125Z 2512/2515 09010G20KT CAVOK
PROB30
TEMPO 2512/2515 -SHSN BKN020TCU RMK MIL



MET'MAP, your aeronautical weather chart ! - Copyright ORBIFLY December 2007 - Disclaimer

ORBIFLY MET'MAP TEAM :

Programming & Development : Alexandra Zaïnal
Concept & original design : Baudouin d'Aumeries
Assistance for programming : Marc-Olivier Méhu
Technical & hardware support : Manuel Goepfert

Contact : metmap@orbifly.com




SOURCES & CREDITS :

   NOAA